This is the latest recevied weather packets stored in our database for station/object VK5KJP. If no packets are shown the sender has not sent any weather packets the latest 10 day(s).
| Time | Temp. | Humidity | Pressure | Rain* | Wind** | Luminosity | Snow |
|---|---|---|---|---|---|---|---|
| 1777445741 | 27.78° C | 23% | 1023 hPa | 0 mm | - | - | - |
| 1777443355 | 28.33° C | 23% | 1023.1 hPa | 0 mm | - | - | - |
| 1777434331 | 28.33° C | 25% | 1023.7 hPa | 0 mm | - | - | - |
| 1777430755 | 27.22° C | 30% | 1024.9 hPa | 0 mm | - | - | - |
| 1777429555 | 26.67° C | 32% | 1025.3 hPa | 0 mm | - | - | - |
| 1777427755 | 25.56° C | 36% | 1025.9 hPa | 0 mm | - | - | - |
| 1777426555 | 24.44° C | 40% | 1026.2 hPa | 0 mm | - | - | - |
| 1777425355 | 22.78° C | 48% | 1026.3 hPa | 0 mm | - | - | - |
| 1777424155 | 21.67° C | 47% | 1026.6 hPa | 0 mm | - | - | - |
| 1777422355 | 21.67° C | 48% | 1026.6 hPa | 0 mm | - | - | - |
| 1777418157 | 20° C | 57% | 1026.8 hPa | 0 mm | - | - | - |
| 1777412755 | 10° C | 94% | 1026.4 hPa | 0 mm | - | - | - |
| 1777403764 | 11.11° C | 94% | 1025.3 hPa | 0 mm | - | - | - |
| 1777401921 | 11.11° C | 94% | 1025.1 hPa | 0 mm | - | - | - |
| 1777401355 | 11.67° C | 94% | 1025.1 hPa | 0 mm | - | - | - |
| 1777394175 | 11.67° C | 93% | 1025.2 hPa | 0 mm | - | - | - |
| 1777389321 | 12.78° C | 91% | 1025.1 hPa | 0 mm | - | - | - |
| 1777384554 | 13.89° C | 88% | 1025.4 hPa | 0 mm | - | - | - |
| 1777383932 | 14.44° C | 87% | 1025.6 hPa | 0 mm | - | - | - |
| 1777377974 | 15.56° C | 84% | 1025.4 hPa | 0 mm | - | - | - |
| 1777375554 | 15° C | 85% | 1025.1 hPa | 0 mm | - | - | - |
| 1777371954 | 17.78° C | 81% | 1024.8 hPa | 0 mm | - | - | - |
| 1777370144 | 18.33° C | 77% | 1024.6 hPa | 0 mm | - | - | - |
| 1777368954 | 18.89° C | 76% | 1024.5 hPa | 0 mm | - | - | - |
| 1777367754 | 19.44° C | 75% | 1024.2 hPa | 0 mm | - | - | - |
* Rain latest hour (hover to see other rain measurements)
** Current wind speed in m/s (hover to see current wind gust speed)